Akebono — JG5644 — position and weather

sailwx.info

Track history (hours):
 
Tides and Currents Weather Stations Pressure Air Temp Water Temp Dewpoint Dewpoint Depression Visibility Wind Speed Wind Dir Waves Ship Positions

Akebono

Last reported at 2017-Nov-20 00:27 UTC. Time now 2017-Nov-20 07:41 UTC.
Position N 35°30' E 140°01'.

Length 33 m; draft 4.4 m.

Type: Tug. MMSI: 431000233.

Date/timePositionNaut miles runAvg speedWind from/ knotsBaromVisibWave heightAir tempDewpointWater temp
2017-Nov-20 00:27N 35°30' E 140°01'2 3.4
2017-Nov-19 23:57N 35°32' E 139°60'0 0.3
2017-Nov-19 23:30N 35°32' E 140°00'3 0.1
2017-Nov-18 02:48N 35°29' E 140°00'2 4.4
2017-Nov-18 02:26N 35°30' E 139°59'2 0.1
2017-Nov-17 01:52N 35°29' E 139°58'1 0.4
2017-Nov-17 00:14N 35°29' E 139°57'3 0.1
2017-Nov-15 00:34N 35°32' E 139°56'4 0.2
2017-Nov-14 05:17N 35°28' E 139°58'0 0.1
2017-Nov-14 04:48N 35°28' E 139°58'0 1.7
2017-Nov-14 04:30N 35°29' E 139°58'0 0.2
2017-Nov-14 03:36N 35°29' E 139°58'0 0.7
2017-Nov-14 03:13N 35°29' E 139°58'2 5.0
2017-Nov-14 02:52N 35°30' E 139°56'0 0.0
2017-Nov-14 02:05N 35°30' E 139°56'0 0.0
2017-Nov-14 01:54N 35°30' E 139°56'0 0.0
2017-Nov-14 01:28N 35°30' E 139°56'2 0.0
2017-Nov-12 00:50N 35°29' E 139°54'1 1.7
2017-Nov-12 00:26N 35°29' E 139°54'0 0.0
2017-Nov-12 00:00N 35°29' E 139°54'0 0.1
2017-Nov-11 23:30N 35°29' E 139°54'  
Track history (hours):
 
Tides and Currents Weather Stations Pressure Air Temp Water Temp Dewpoint Dewpoint Depression Visibility Wind Speed Wind Dir Waves Ship Positions

Akebono

Last reported at 2017-Nov-20 00:27 UTC. Time now 2017-Nov-20 07:41 UTC.
Position N 35°30' E 140°01'.

Length 33 m; draft 4.4 m.

Type: Tug. MMSI: 431000233.

Date/timePositionNaut miles runAvg speedWind from/ knotsBaromVisibWave heightAir tempDewpointWater temp
2017-Nov-20 00:27N 35°30' E 140°01'2 3.4
2017-Nov-19 23:57N 35°32' E 139°60'0 0.3
2017-Nov-19 23:30N 35°32' E 140°00'3 0.1
2017-Nov-18 02:48N 35°29' E 140°00'2 4.4
2017-Nov-18 02:26N 35°30' E 139°59'2 0.1
2017-Nov-17 01:52N 35°29' E 139°58'1 0.4
2017-Nov-17 00:14N 35°29' E 139°57'3 0.1
2017-Nov-15 00:34N 35°32' E 139°56'4 0.2
2017-Nov-14 05:17N 35°28' E 139°58'0 0.1
2017-Nov-14 04:48N 35°28' E 139°58'0 1.7
2017-Nov-14 04:30N 35°29' E 139°58'0 0.2
2017-Nov-14 03:36N 35°29' E 139°58'0 0.7
2017-Nov-14 03:13N 35°29' E 139°58'2 5.0
2017-Nov-14 02:52N 35°30' E 139°56'0 0.0
2017-Nov-14 02:05N 35°30' E 139°56'0 0.0
2017-Nov-14 01:54N 35°30' E 139°56'0 0.0
2017-Nov-14 01:28N 35°30' E 139°56'2 0.0
2017-Nov-12 00:50N 35°29' E 139°54'1 1.7
2017-Nov-12 00:26N 35°29' E 139°54'0 0.0
2017-Nov-12 00:00N 35°29' E 139°54'0 0.1
2017-Nov-11 23:30N 35°29' E 139°54'  

Dump ship's entire track history